createdAt,value
2023-01-08T00:01:31.832Z,5.60
2023-01-08T00:04:00.126Z,5.60
2023-01-08T00:06:28.451Z,5.40
2023-01-08T00:08:56.635Z,5.50
2023-01-08T00:11:26.458Z,5.40
2023-01-08T00:13:54.595Z,5.50
2023-01-08T00:16:22.850Z,5.50
2023-01-08T00:18:51.063Z,5.50
2023-01-08T00:21:19.335Z,5.50
2023-01-08T00:23:47.558Z,5.50
2023-01-08T00:26:16.185Z,5.50
2023-01-08T00:28:45.733Z,5.50
2023-01-08T00:31:14.536Z,5.20
2023-01-08T00:33:43.037Z,5.30
2023-01-08T00:36:13.132Z,5.30
2023-01-08T00:38:41.529Z,5.50
2023-01-08T00:41:09.878Z,5.60
2023-01-08T00:43:38.938Z,5.40
2023-01-08T00:46:09.350Z,5.40
2023-01-08T00:48:38.981Z,5.40
2023-01-08T00:51:08.970Z,5.30
2023-01-08T00:53:38.087Z,4.90
2023-01-08T00:56:08.451Z,5.10
2023-01-08T00:58:36.916Z,5.20
2023-01-08T01:01:12.698Z,5.10
2023-01-08T01:03:41.118Z,5.00
2023-01-08T01:06:09.898Z,5.00
2023-01-08T01:08:38.246Z,4.90
2023-01-08T01:11:08.740Z,4.90
2023-01-08T01:13:36.921Z,4.90
2023-01-08T01:16:05.776Z,4.90
2023-01-08T01:18:35.610Z,5.00
2023-01-08T01:21:03.845Z,5.00
2023-01-08T01:23:32.118Z,5.10
2023-01-08T01:26:00.266Z,5.00
2023-01-08T01:28:28.539Z,5.00
2023-01-08T01:30:57.251Z,5.00
2023-01-08T01:33:25.651Z,5.10
2023-01-08T01:36:03.527Z,5.20
2023-01-08T01:38:31.970Z,5.40
2023-01-08T01:41:00.644Z,4.90
2023-01-08T01:43:39.888Z,5.00
2023-01-08T01:46:22.194Z,5.10
2023-01-08T01:48:54.436Z,5.20
2023-01-08T01:51:30.447Z,5.30
2023-01-08T01:53:59.791Z,5.30
2023-01-08T01:56:28.935Z,5.20
2023-01-08T01:58:57.443Z,5.30
2023-01-08T02:01:26.593Z,5.00
2023-01-08T02:03:54.914Z,5.10
2023-01-08T02:06:34.565Z,5.20
2023-01-08T02:09:05.394Z,5.30
2023-01-08T02:11:44.429Z,5.20
2023-01-08T02:14:18.076Z,5.20
2023-01-08T02:16:51.492Z,5.30
2023-01-08T02:19:34.408Z,5.10
2023-01-08T02:22:15.738Z,5.20
2023-01-08T02:24:54.651Z,5.20
2023-01-08T02:27:29.033Z,5.40
2023-01-08T02:29:58.159Z,5.30
2023-01-08T02:32:28.430Z,5.20
2023-01-08T02:34:56.714Z,5.20
2023-01-08T02:37:25.175Z,5.10
2023-01-08T02:40:03.179Z,5.10
2023-01-08T02:42:41.812Z,5.10
2023-01-08T02:45:21.151Z,5.00
2023-01-08T02:47:55.710Z,5.10
2023-01-08T02:50:29.882Z,4.80
2023-01-08T02:53:05.026Z,4.80
2023-01-08T02:55:35.467Z,4.70
2023-01-08T02:58:05.796Z,4.60
2023-01-08T03:00:35.920Z,4.70
2023-01-08T03:03:10.972Z,4.60
2023-01-08T03:05:42.172Z,4.60
2023-01-08T03:08:11.488Z,4.60
2023-01-08T03:10:42.645Z,4.50
2023-01-08T03:13:17.243Z,4.40
2023-01-08T03:15:50.851Z,4.50
2023-01-08T03:18:23.158Z,4.10
2023-01-08T03:20:52.321Z,4.10
2023-01-08T03:23:22.987Z,4.10
2023-01-08T03:25:51.485Z,4.20
2023-01-08T03:28:25.424Z,4.30
2023-01-08T03:30:55.248Z,4.20
2023-01-08T03:33:25.215Z,4.20
2023-01-08T03:35:56.279Z,4.20
2023-01-08T03:38:27.646Z,4.30
2023-01-08T03:41:00.724Z,4.20
2023-01-08T03:43:31.013Z,4.30
2023-01-08T03:46:03.089Z,4.20
2023-01-08T03:48:33.471Z,4.30
2023-01-08T03:51:01.793Z,4.30
2023-01-08T03:53:30.229Z,4.30
2023-01-08T03:55:59.390Z,4.40
2023-01-08T03:58:27.608Z,4.40
2023-01-08T04:00:57.178Z,4.40
2023-01-08T04:03:25.595Z,4.40
2023-01-08T04:05:53.755Z,4.40
2023-01-08T04:08:22.169Z,4.40
2023-01-08T04:10:50.291Z,4.40
2023-01-08T04:13:18.504Z,4.50
2023-01-08T04:15:49.440Z,4.10
2023-01-08T04:18:19.659Z,4.30
2023-01-08T04:20:48.165Z,4.40
2023-01-08T04:23:16.981Z,4.30
2023-01-08T04:25:45.095Z,4.10
2023-01-08T04:28:13.380Z,4.00
2023-01-08T04:30:41.588Z,4.10
2023-01-08T04:33:09.833Z,4.10
2023-01-08T04:35:39.415Z,4.00
2023-01-08T04:38:07.762Z,4.20
2023-01-08T04:40:36.157Z,4.20
2023-01-08T04:43:04.386Z,4.30
2023-01-08T04:45:32.680Z,4.30
2023-01-08T04:48:01.352Z,4.20
2023-01-08T04:50:29.465Z,4.30
2023-01-08T04:53:00.420Z,4.30
2023-01-08T04:55:28.674Z,4.30
2023-01-08T04:57:56.801Z,4.50
2023-01-08T05:00:25.088Z,4.50
2023-01-08T05:02:53.346Z,4.40
2023-01-08T05:05:21.665Z,4.40
2023-01-08T05:07:49.799Z,4.50
2023-01-08T05:10:19.514Z,4.20
2023-01-08T05:12:47.626Z,4.30
2023-01-08T05:15:15.948Z,4.10
2023-01-08T05:17:44.085Z,4.20
2023-01-08T05:20:12.909Z,4.10
2023-01-08T05:22:41.071Z,4.20
2023-01-08T05:25:09.990Z,4.10
2023-01-08T05:27:39.538Z,4.20
2023-01-08T05:30:09.210Z,4.20
2023-01-08T05:32:37.338Z,3.90
2023-01-08T05:35:06.205Z,4.10
2023-01-08T05:37:35.777Z,4.10
2023-01-08T05:40:04.148Z,4.10
2023-01-08T05:42:34.615Z,4.20
2023-01-08T05:45:04.831Z,4.00
2023-01-08T05:47:33.698Z,3.90
2023-01-08T05:50:02.361Z,4.00
2023-01-08T05:52:30.915Z,4.10
2023-01-08T05:55:00.173Z,4.00
2023-01-08T05:57:28.412Z,4.00
2023-01-08T05:59:56.674Z,4.00
2023-01-08T06:02:26.186Z,4.10
2023-01-08T06:04:54.466Z,4.00
2023-01-08T06:07:22.650Z,4.00
2023-01-08T06:09:50.827Z,4.10
2023-01-08T06:12:18.940Z,4.00
2023-01-08T06:14:47.227Z,3.90
2023-01-08T06:17:16.429Z,3.90
2023-01-08T06:19:47.547Z,4.10
2023-01-08T06:22:15.886Z,4.10
2023-01-08T06:24:44.071Z,4.20
2023-01-08T06:27:12.266Z,4.20
2023-01-08T06:29:40.478Z,4.00
2023-01-08T06:32:08.694Z,4.20
2023-01-08T06:34:36.860Z,4.20
2023-01-08T06:37:06.463Z,4.20
2023-01-08T06:39:34.610Z,4.30
2023-01-08T06:42:02.894Z,4.30
2023-01-08T06:44:31.061Z,4.30
2023-01-08T06:46:59.229Z,4.10
2023-01-08T06:49:27.432Z,4.00
2023-01-08T06:51:55.714Z,4.10
2023-01-08T06:54:25.228Z,4.00
2023-01-08T06:56:54.495Z,4.20
2023-01-08T06:59:23.549Z,4.20
2023-01-08T07:01:52.005Z,4.10
2023-01-08T07:04:21.036Z,4.10
2023-01-08T07:06:49.290Z,4.10
2023-01-08T07:09:17.509Z,4.00
2023-01-08T07:11:47.152Z,4.00
2023-01-08T07:14:15.838Z,4.10
2023-01-08T07:16:44.024Z,4.20
2023-01-08T07:19:12.626Z,4.30
2023-01-08T07:21:40.970Z,4.30
2023-01-08T07:24:09.723Z,4.30
2023-01-08T07:26:39.647Z,4.20
2023-01-08T07:29:09.435Z,4.40
2023-01-08T07:31:37.777Z,4.40
2023-01-08T07:34:06.319Z,4.20
2023-01-08T07:36:34.548Z,4.50
2023-01-08T07:39:02.976Z,4.50
2023-01-08T07:41:31.211Z,4.50
2023-01-08T07:43:59.385Z,4.50
2023-01-08T07:46:29.073Z,4.50
2023-01-08T07:48:58.038Z,4.30
2023-01-08T07:51:26.350Z,4.40
2023-01-08T07:53:56.353Z,4.40
2023-01-08T07:56:25.743Z,4.30
2023-01-08T07:58:53.955Z,4.20
2023-01-08T08:01:22.374Z,4.40
2023-01-08T08:03:51.921Z,4.80
2023-01-08T08:06:20.188Z,5.00
2023-01-08T08:08:48.498Z,5.00
2023-01-08T08:11:16.782Z,5.20
2023-01-08T08:13:45.235Z,4.80
2023-01-08T08:16:13.834Z,4.50
2023-01-08T08:18:41.997Z,4.50
2023-01-08T08:21:11.593Z,4.50
2023-01-08T08:23:39.743Z,4.40
2023-01-08T08:26:07.955Z,4.60
2023-01-08T08:28:36.130Z,4.70
2023-01-08T08:31:04.477Z,4.80
2023-01-08T08:33:32.751Z,4.60
2023-01-08T08:36:01.088Z,4.90
2023-01-08T08:38:30.671Z,4.50
2023-01-08T08:40:58.894Z,4.50
2023-01-08T08:43:27.107Z,4.80
2023-01-08T08:45:57.017Z,4.60
2023-01-08T08:48:25.499Z,5.20
2023-01-08T08:50:53.792Z,5.00
2023-01-08T08:53:21.968Z,5.10
2023-01-08T08:55:51.552Z,5.00
2023-01-08T08:58:19.746Z,5.10
2023-01-08T09:00:47.966Z,4.90
2023-01-08T09:03:18.932Z,4.90
2023-01-08T09:05:47.180Z,5.00
2023-01-08T09:08:15.299Z,5.20
2023-01-08T09:10:43.727Z,5.00
2023-01-08T09:13:13.800Z,4.90
2023-01-08T09:15:41.982Z,5.00
2023-01-08T09:18:10.159Z,5.30
2023-01-08T09:20:38.704Z,5.00
2023-01-08T09:23:07.133Z,5.20
2023-01-08T09:25:35.360Z,5.30
2023-01-08T09:28:05.304Z,5.30
2023-01-08T09:30:35.423Z,5.40
2023-01-08T09:33:05.031Z,5.30
2023-01-08T09:35:34.267Z,5.40
2023-01-08T09:38:02.472Z,5.30
2023-01-08T09:40:38.933Z,5.20
2023-01-08T09:43:07.424Z,5.50
2023-01-08T09:45:40.703Z,5.60
2023-01-08T09:48:16.439Z,5.90
2023-01-08T09:50:45.123Z,5.70
2023-01-08T09:53:15.857Z,5.90
2023-01-08T09:55:44.652Z,6.00
2023-01-08T09:58:22.719Z,6.00
2023-01-08T10:00:53.190Z,5.80
2023-01-08T10:03:22.539Z,5.80
2023-01-08T10:05:52.645Z,5.70
2023-01-08T10:08:22.541Z,5.60
2023-01-08T10:10:50.875Z,5.70
2023-01-08T10:13:19.325Z,5.80
2023-01-08T10:15:48.881Z,5.70
2023-01-08T10:18:28.728Z,5.70
2023-01-08T10:20:58.009Z,5.90
2023-01-08T10:23:26.189Z,5.40
2023-01-08T10:25:56.698Z,5.60
2023-01-08T10:28:26.755Z,5.50
2023-01-08T10:30:59.759Z,5.70
2023-01-08T10:33:33.005Z,6.00
2023-01-08T10:36:03.800Z,6.00
2023-01-08T10:38:33.971Z,6.20
2023-01-08T10:41:05.301Z,6.40
2023-01-08T10:43:35.994Z,6.10
2023-01-08T10:46:07.785Z,5.60
2023-01-08T10:48:40.279Z,5.70
2023-01-08T10:51:15.644Z,5.50
2023-01-08T10:53:44.038Z,5.40
2023-01-08T10:56:21.969Z,5.30
2023-01-08T10:58:50.846Z,5.60
2023-01-08T11:01:23.457Z,5.40
2023-01-08T11:03:55.331Z,5.70
2023-01-08T11:06:25.647Z,5.30
2023-01-08T11:08:55.944Z,5.50
2023-01-08T11:11:24.763Z,5.60
2023-01-08T11:13:59.086Z,5.90
2023-01-08T11:16:36.322Z,5.90
2023-01-08T11:19:07.256Z,5.80
2023-01-08T11:21:37.005Z,6.00
2023-01-08T11:24:16.311Z,6.00
2023-01-08T11:26:50.157Z,6.10
2023-01-08T11:29:24.938Z,6.10
2023-01-08T11:31:58.651Z,5.70
2023-01-08T11:34:36.097Z,6.00
2023-01-08T11:37:12.792Z,5.80
2023-01-08T11:39:41.154Z,5.90
2023-01-08T11:42:21.961Z,5.80
2023-01-08T11:45:01.683Z,5.70
2023-01-08T11:47:44.322Z,5.90
2023-01-08T11:50:23.064Z,6.00
2023-01-08T11:53:07.221Z,5.90
2023-01-08T11:55:47.404Z,5.90
2023-01-08T11:58:33.752Z,5.70
2023-01-08T12:01:15.204Z,5.50
2023-01-08T12:03:48.226Z,5.20
2023-01-08T12:06:29.695Z,5.30
2023-01-08T12:09:10.600Z,5.50
2023-01-08T12:11:47.923Z,5.30
2023-01-08T12:14:28.568Z,5.40
2023-01-08T12:17:18.236Z,5.50
2023-01-08T12:20:07.040Z,5.70
2023-01-08T12:22:45.054Z,5.50
2023-01-08T12:25:48.608Z,5.40
2023-01-08T12:28:35.695Z,5.60
2023-01-08T12:31:30.587Z,5.70
2023-01-08T12:34:05.454Z,5.50
2023-01-08T12:36:38.868Z,5.40
2023-01-08T12:39:14.039Z,5.20
2023-01-08T12:41:45.004Z,5.20
2023-01-08T12:44:18.569Z,5.30
2023-01-08T12:46:47.085Z,5.10
2023-01-08T12:49:18.827Z,5.20
2023-01-08T12:51:57.027Z,5.20
2023-01-08T12:54:33.430Z,5.00
2023-01-08T12:57:09.388Z,5.10
2023-01-08T12:59:43.913Z,5.20
2023-01-08T13:02:23.399Z,5.10
2023-01-08T13:04:51.717Z,4.80
2023-01-08T13:07:22.642Z,4.80
2023-01-08T13:09:58.242Z,4.90
2023-01-08T13:12:35.337Z,4.80
2023-01-08T13:15:04.947Z,5.00
2023-01-08T13:17:33.162Z,5.00
2023-01-08T13:20:03.964Z,4.90
2023-01-08T13:22:35.252Z,4.70
2023-01-08T13:25:30.221Z,4.90
2023-01-08T13:27:58.908Z,5.00
2023-01-08T13:30:42.415Z,4.80
2023-01-08T13:33:39.704Z,4.80
2023-01-08T13:36:32.089Z,4.80
2023-01-08T13:39:02.203Z,4.60
2023-01-08T13:41:33.017Z,4.60
2023-01-08T13:44:06.769Z,4.80
2023-01-08T13:46:38.314Z,4.70
2023-01-08T13:49:09.180Z,4.90
2023-01-08T13:51:45.694Z,4.80
2023-01-08T13:54:25.818Z,4.80
2023-01-08T13:57:02.998Z,4.60
2023-01-08T13:59:42.629Z,4.70
2023-01-08T14:02:28.812Z,4.70
2023-01-08T14:04:58.238Z,4.60
2023-01-08T14:07:27.022Z,4.70
2023-01-08T14:09:55.406Z,4.70
2023-01-08T14:12:26.170Z,4.40
2023-01-08T14:14:58.923Z,4.40
2023-01-08T14:17:31.545Z,4.50
2023-01-08T14:20:00.465Z,4.50
2023-01-08T14:22:32.738Z,4.50
2023-01-08T14:25:04.373Z,4.70
2023-01-08T14:27:35.371Z,4.70
2023-01-08T14:30:17.808Z,4.30
2023-01-08T14:32:46.481Z,4.40
2023-01-08T14:35:18.046Z,4.30
2023-01-08T14:37:46.308Z,4.40
2023-01-08T14:40:18.609Z,4.30
2023-01-08T14:42:53.306Z,4.30
2023-01-08T14:45:25.447Z,4.10
2023-01-08T14:47:55.929Z,4.10
2023-01-08T14:50:27.545Z,4.20
2023-01-08T14:53:00.821Z,4.10
2023-01-08T14:55:36.808Z,4.10
2023-01-08T14:58:15.073Z,4.10
2023-01-08T15:00:44.111Z,4.20
2023-01-08T15:03:33.930Z,4.20
2023-01-08T15:06:02.534Z,4.20
2023-01-08T15:08:36.111Z,4.20
2023-01-08T15:11:06.723Z,4.20
2023-01-08T15:13:38.497Z,4.20
2023-01-08T15:16:09.798Z,4.20
2023-01-08T15:18:44.874Z,4.10
2023-01-08T15:21:19.366Z,3.90
2023-01-08T15:23:51.592Z,4.00
2023-01-08T15:26:20.082Z,3.90
2023-01-08T15:28:55.042Z,3.90
2023-01-08T15:31:28.564Z,4.10
2023-01-08T15:33:57.343Z,4.10
2023-01-08T15:36:25.433Z,4.20
2023-01-08T15:38:53.914Z,4.20
2023-01-08T15:41:37.617Z,4.30
2023-01-08T15:44:07.855Z,4.10
2023-01-08T15:46:36.106Z,4.20
2023-01-08T15:49:04.348Z,4.00
2023-01-08T15:51:35.197Z,4.00
2023-01-08T15:54:03.769Z,4.10
2023-01-08T15:56:31.949Z,4.10
2023-01-08T15:59:00.136Z,4.10
2023-01-08T16:01:30.281Z,4.20
2023-01-08T16:03:58.910Z,4.00
2023-01-08T16:06:27.162Z,4.10
2023-01-08T16:08:57.821Z,3.90
2023-01-08T16:11:26.070Z,4.00
2023-01-08T16:13:54.332Z,4.10
2023-01-08T16:16:22.666Z,4.20
2023-01-08T16:18:52.596Z,3.90
2023-01-08T16:21:20.760Z,4.00
2023-01-08T16:23:48.999Z,4.00
2023-01-08T16:26:17.746Z,4.00
2023-01-08T16:28:45.976Z,4.10
2023-01-08T16:31:14.209Z,4.00
2023-01-08T16:33:42.641Z,4.00
2023-01-08T16:36:12.591Z,4.00
2023-01-08T16:38:40.829Z,4.10
2023-01-08T16:41:09.054Z,4.00
2023-01-08T16:43:41.063Z,4.10
2023-01-08T16:46:13.882Z,4.00
2023-01-08T16:48:42.888Z,4.10
2023-01-08T16:51:12.710Z,4.00
2023-01-08T16:53:41.092Z,4.10
2023-01-08T16:56:10.373Z,4.10
2023-01-08T16:58:38.690Z,4.10
2023-01-08T17:01:10.488Z,4.20
2023-01-08T17:03:39.196Z,4.20
2023-01-08T17:06:10.587Z,4.10
2023-01-08T17:08:41.670Z,4.10
2023-01-08T17:11:12.170Z,4.10
2023-01-08T17:13:41.275Z,4.10
2023-01-08T17:16:12.237Z,4.00
2023-01-08T17:18:40.982Z,4.10
2023-01-08T17:21:11.543Z,3.90
2023-01-08T17:23:42.363Z,4.10
2023-01-08T17:26:12.198Z,4.10
2023-01-08T17:28:40.750Z,4.00
2023-01-08T17:31:11.023Z,4.20
2023-01-08T17:33:39.709Z,4.20
2023-01-08T17:36:12.385Z,4.10
2023-01-08T17:38:43.042Z,4.30
2023-01-08T17:41:31.977Z,4.30
2023-01-08T17:44:00.403Z,4.20
2023-01-08T17:46:29.101Z,4.40
2023-01-08T17:48:57.371Z,4.30
2023-01-08T17:51:25.574Z,4.20
2023-01-08T17:53:56.841Z,4.30
2023-01-08T17:56:25.511Z,4.40
2023-01-08T17:58:53.800Z,4.40
2023-01-08T18:01:22.307Z,4.30
2023-01-08T18:03:50.647Z,4.30
2023-01-08T18:06:18.876Z,4.50
2023-01-08T18:08:47.386Z,4.50
2023-01-08T18:11:17.081Z,4.50
2023-01-08T18:13:45.302Z,4.30
2023-01-08T18:16:15.031Z,4.40
2023-01-08T18:18:43.279Z,4.40
2023-01-08T18:21:11.540Z,4.40
2023-01-08T18:23:39.790Z,4.30
2023-01-08T18:26:11.449Z,4.30
2023-01-08T18:28:41.965Z,4.20
2023-01-08T18:31:11.649Z,4.30
2023-01-08T18:33:40.800Z,4.40
2023-01-08T18:36:12.683Z,4.40
2023-01-08T18:38:43.166Z,4.20
2023-01-08T18:41:33.603Z,4.20
2023-01-08T18:44:04.507Z,4.20
2023-01-08T18:46:32.811Z,4.10
2023-01-08T18:49:01.071Z,4.30
2023-01-08T18:51:29.487Z,4.30
2023-01-08T18:53:57.676Z,4.20
2023-01-08T18:56:30.531Z,4.30
2023-01-08T18:58:59.146Z,4.40
2023-01-08T19:01:28.829Z,4.40
2023-01-08T19:03:57.631Z,4.40
2023-01-08T19:06:26.129Z,4.40
2023-01-08T19:08:57.495Z,4.50
2023-01-08T19:11:26.543Z,4.60
2023-01-08T19:13:56.513Z,4.30
2023-01-08T19:16:25.241Z,4.40
2023-01-08T19:18:55.202Z,4.40
2023-01-08T19:21:23.443Z,4.30
2023-01-08T19:23:51.953Z,4.50
2023-01-08T19:26:20.349Z,4.60
2023-01-08T19:28:48.562Z,4.50
2023-01-08T19:31:18.604Z,4.50
2023-01-08T19:33:47.321Z,4.50
2023-01-08T19:36:18.707Z,4.50
2023-01-08T19:38:46.922Z,4.70
2023-01-08T19:41:32.755Z,4.60
2023-01-08T19:44:01.319Z,4.60
2023-01-08T19:46:30.306Z,4.50
2023-01-08T19:48:59.422Z,4.60
2023-01-08T19:51:30.246Z,4.50
2023-01-08T19:53:59.373Z,4.50
2023-01-08T19:56:27.714Z,4.70
2023-01-08T19:58:56.839Z,4.60
2023-01-08T20:01:27.364Z,4.60
2023-01-08T20:03:57.060Z,4.80
2023-01-08T20:06:26.991Z,4.80
2023-01-08T20:09:00.073Z,4.80
2023-01-08T20:11:29.605Z,4.80
2023-01-08T20:14:00.534Z,4.70
2023-01-08T20:16:30.400Z,4.70
2023-01-08T20:18:59.319Z,4.70
2023-01-08T20:21:27.583Z,4.70
2023-01-08T20:23:59.264Z,4.80
2023-01-08T20:26:28.963Z,4.80
2023-01-08T20:28:58.141Z,4.80
2023-01-08T20:31:31.343Z,4.80
2023-01-08T20:34:01.214Z,4.80
2023-01-08T20:36:32.049Z,4.70
2023-01-08T20:39:03.316Z,4.60
2023-01-08T20:41:31.622Z,4.60
2023-01-08T20:44:01.394Z,4.80
2023-01-08T20:46:30.785Z,4.50
2023-01-08T20:49:02.866Z,4.50
2023-01-08T20:51:31.375Z,4.50
2023-01-08T20:54:02.879Z,4.50
2023-01-08T20:56:31.197Z,4.50
2023-01-08T20:58:59.734Z,4.50
2023-01-08T21:01:31.321Z,4.50
2023-01-08T21:04:00.843Z,4.40
2023-01-08T21:06:30.892Z,4.50
2023-01-08T21:09:03.159Z,4.50
2023-01-08T21:11:31.792Z,4.50
2023-01-08T21:13:59.964Z,4.40
2023-01-08T21:16:30.163Z,4.50
2023-01-08T21:18:59.309Z,4.50
2023-01-08T21:21:29.860Z,4.40
2023-01-08T21:23:58.287Z,4.40
2023-01-08T21:26:28.637Z,4.70
2023-01-08T21:28:56.789Z,4.50
2023-01-08T21:31:28.582Z,4.50
2023-01-08T21:33:58.234Z,4.70
2023-01-08T21:36:28.861Z,4.50
2023-01-08T21:38:58.256Z,4.70
2023-01-08T21:41:46.224Z,4.70
2023-01-08T21:44:33.491Z,4.70
2023-01-08T21:47:02.990Z,4.50
2023-01-08T21:49:31.783Z,4.50
2023-01-08T21:52:17.786Z,4.60
2023-01-08T21:54:46.021Z,4.50
2023-01-08T21:57:16.720Z,4.60
2023-01-08T21:59:45.379Z,4.70
2023-01-08T22:02:16.157Z,4.50
2023-01-08T22:04:44.569Z,4.50
2023-01-08T22:07:12.812Z,4.40
2023-01-08T22:09:41.126Z,4.40
2023-01-08T22:12:09.785Z,4.60
2023-01-08T22:14:39.561Z,4.60
2023-01-08T22:17:08.665Z,4.60
2023-01-08T22:19:38.431Z,4.60
2023-01-08T22:22:08.839Z,4.60
2023-01-08T22:24:38.793Z,4.60
2023-01-08T22:27:07.915Z,4.70
2023-01-08T22:29:36.431Z,4.60
2023-01-08T22:32:06.780Z,4.60
2023-01-08T22:34:36.149Z,4.60
2023-01-08T22:37:04.395Z,4.60
2023-01-08T22:39:32.784Z,4.60
2023-01-08T22:42:01.322Z,4.70
2023-01-08T22:44:29.635Z,4.60
2023-01-08T22:46:59.211Z,4.40
2023-01-08T22:49:29.117Z,4.50
2023-01-08T22:51:57.473Z,4.60
2023-01-08T22:54:25.711Z,4.60
2023-01-08T22:56:53.925Z,4.60
2023-01-08T22:59:22.226Z,4.50
2023-01-08T23:01:50.467Z,4.60
2023-01-08T23:04:18.818Z,4.60
2023-01-08T23:06:48.450Z,4.60
2023-01-08T23:09:16.736Z,4.60
2023-01-08T23:11:44.959Z,4.70
2023-01-08T23:14:15.943Z,4.70
2023-01-08T23:16:44.260Z,4.70
2023-01-08T23:19:12.513Z,4.70
2023-01-08T23:21:40.662Z,4.60
2023-01-08T23:24:13.696Z,4.60
2023-01-08T23:26:42.191Z,4.60
2023-01-08T23:29:10.629Z,4.50
2023-01-08T23:31:39.471Z,4.60
2023-01-08T23:34:07.885Z,4.70
2023-01-08T23:36:36.210Z,4.70
2023-01-08T23:39:05.311Z,4.70
2023-01-08T23:41:35.439Z,4.70
2023-01-08T23:44:06.096Z,4.50
2023-01-08T23:46:34.875Z,4.60
2023-01-08T23:49:03.010Z,4.50
2023-01-08T23:51:31.447Z,4.50
2023-01-08T23:53:59.688Z,4.60
2023-01-08T23:56:28.279Z,4.60
2023-01-08T23:58:59.030Z,4.50
